OOCL California — VRWC8 — position and weather

sailwx.info

Track history (hours):
 
Tides and Currents Weather Stations Pressure Air Temp Water Temp Dewpoint Dewpoint Depression Visibility Wind Speed Wind Dir Waves Ship Positions

OOCL California

Last reported at 2015-Jan-27 05:33 UTC. Time now 2015-Jan-27 05:48 UTC.
Position N 23°58' E 118°30'.

Length 276 m; beam 40 m; draft 14 m.

Type: Cargo ship. MMSI: 477704000.

Date/timePositionNaut miles runAvg speedWind from/ knotsBaromVisibWave heightAir tempDewpointWater temp
2015-Jan-27 05:33N 23°58' E 118°30'1110.4
2015-Jan-27 04:30N 23°51' E 118°21'1010.7
2015-Jan-27 03:33N 23°44' E 118°13'1310.5
2015-Jan-27 02:19N 23°36' E 118°02'2212.1
2015-Jan-27 00:29N 23°22' E 117°44'4112.7
2015-Jan-26 21:15N 23°00' E 117°05'912.4
2015-Jan-26 20:32N 22°55' E 116°57'1212.4
2015-Jan-26 19:33N 22°48' E 116°47'13912.7
2015-Jan-26 08:33N 22°07' E 114°23'19 9.5
2015-Jan-26 06:33N 22°19' E 114°07'1 0.8
2015-Jan-26 05:28N 22°20' E 114°08'0 0.0
2015-Jan-26 04:33N 22°20' E 114°08'0 0.0
2015-Jan-26 03:33N 22°20' E 114°08'0 0.0
2015-Jan-26 02:31N 22°20' E 114°08'0 0.0
2015-Jan-26 01:33N 22°20' E 114°08'0 0.0
2015-Jan-26 00:33N 22°20' E 114°08'0 0.0
2015-Jan-25 23:34N 22°20' E 114°08'0 0.0
2015-Jan-25 22:33N 22°20' E 114°08'0 0.0
2015-Jan-25 21:33N 22°20' E 114°08'7 6.8
2015-Jan-25 20:30N 22°13' E 114°10'8 7.5
2015-Jan-25 19:27N 22°09' E 114°17'8 9.1
2015-Jan-25 18:33N 22°09' E 114°26'10 9.6
2015-Jan-25 17:33N 22°08' E 114°37'297 7.8
2015-Jan-24 03:16N 22°31' E 119°57'6 9.0
2015-Jan-24 02:33N 22°32' E 120°04'1010.0
2015-Jan-24 01:33N 22°33' E 120°15'4 3.8
2015-Jan-24 00:33N 22°34' E 120°18'0 0.1
2015-Jan-23 23:32N 22°34' E 120°18'0 0.0
2015-Jan-23 22:25N 22°34' E 120°18'0 0.0
2015-Jan-23 21:32N 22°34' E 120°18'0 0.0
2015-Jan-23 20:32N 22°34' E 120°18'0 0.0
2015-Jan-23 19:31N 22°34' E 120°18'0 0.0
2015-Jan-23 18:32N 22°34' E 120°18'0 0.0
2015-Jan-23 17:32N 22°34' E 120°18'0 0.0
2015-Jan-23 16:31N 22°34' E 120°18'0 0.0
2015-Jan-23 15:32N 22°34' E 120°18'0 0.0
2015-Jan-23 14:26N 22°34' E 120°18'1 1.6
2015-Jan-23 13:33N 22°33' E 120°19'4 4.2
2015-Jan-23 12:33N 22°32' E 120°15'6 6.3
2015-Jan-23 11:33N 22°27' E 120°11'10 9.7
2015-Jan-23 10:33N 22°17' E 120°09'1110.6
2015-Jan-23 09:33N 22°08' E 120°15'  
2015-Jan-18 18:00N 03°18' E 139°18'34414.3 070 / 141006.510.8 0.528.025.2
2015-Jan-17 18:00S 01°00' E 143°06'15312.7 220 / 31006.510.8 26.023.1
2015-Jan-17 06:00S 02°54' E 144°48'   090 / 71004.5 5.4 0.530.025.830.0
Track history (hours):
 
Tides and Currents Weather Stations Pressure Air Temp Water Temp Dewpoint Dewpoint Depression Visibility Wind Speed Wind Dir Waves Ship Positions

OOCL California

Last reported at 2015-Jan-27 05:33 UTC. Time now 2015-Jan-27 05:48 UTC.
Position N 23°58' E 118°30'.

Length 276 m; beam 40 m; draft 14 m.

Type: Cargo ship. MMSI: 477704000.

Date/timePositionNaut miles runAvg speedWind from/ knotsBaromVisibWave heightAir tempDewpointWater temp
2015-Jan-27 05:33N 23°58' E 118°30'1110.4
2015-Jan-27 04:30N 23°51' E 118°21'1010.7
2015-Jan-27 03:33N 23°44' E 118°13'1310.5
2015-Jan-27 02:19N 23°36' E 118°02'2212.1
2015-Jan-27 00:29N 23°22' E 117°44'4112.7
2015-Jan-26 21:15N 23°00' E 117°05'912.4
2015-Jan-26 20:32N 22°55' E 116°57'1212.4
2015-Jan-26 19:33N 22°48' E 116°47'13912.7
2015-Jan-26 08:33N 22°07' E 114°23'19 9.5
2015-Jan-26 06:33N 22°19' E 114°07'1 0.8
2015-Jan-26 05:28N 22°20' E 114°08'0 0.0
2015-Jan-26 04:33N 22°20' E 114°08'0 0.0
2015-Jan-26 03:33N 22°20' E 114°08'0 0.0
2015-Jan-26 02:31N 22°20' E 114°08'0 0.0
2015-Jan-26 01:33N 22°20' E 114°08'0 0.0
2015-Jan-26 00:33N 22°20' E 114°08'0 0.0
2015-Jan-25 23:34N 22°20' E 114°08'0 0.0
2015-Jan-25 22:33N 22°20' E 114°08'0 0.0
2015-Jan-25 21:33N 22°20' E 114°08'7 6.8
2015-Jan-25 20:30N 22°13' E 114°10'8 7.5
2015-Jan-25 19:27N 22°09' E 114°17'8 9.1
2015-Jan-25 18:33N 22°09' E 114°26'10 9.6
2015-Jan-25 17:33N 22°08' E 114°37'297 7.8
2015-Jan-24 03:16N 22°31' E 119°57'6 9.0
2015-Jan-24 02:33N 22°32' E 120°04'1010.0
2015-Jan-24 01:33N 22°33' E 120°15'4 3.8
2015-Jan-24 00:33N 22°34' E 120°18'0 0.1
2015-Jan-23 23:32N 22°34' E 120°18'0 0.0
2015-Jan-23 22:25N 22°34' E 120°18'0 0.0
2015-Jan-23 21:32N 22°34' E 120°18'0 0.0
2015-Jan-23 20:32N 22°34' E 120°18'0 0.0
2015-Jan-23 19:31N 22°34' E 120°18'0 0.0
2015-Jan-23 18:32N 22°34' E 120°18'0 0.0
2015-Jan-23 17:32N 22°34' E 120°18'0 0.0
2015-Jan-23 16:31N 22°34' E 120°18'0 0.0
2015-Jan-23 15:32N 22°34' E 120°18'0 0.0
2015-Jan-23 14:26N 22°34' E 120°18'1 1.6
2015-Jan-23 13:33N 22°33' E 120°19'4 4.2
2015-Jan-23 12:33N 22°32' E 120°15'6 6.3
2015-Jan-23 11:33N 22°27' E 120°11'10 9.7
2015-Jan-23 10:33N 22°17' E 120°09'1110.6
2015-Jan-23 09:33N 22°08' E 120°15'  
2015-Jan-18 18:00N 03°18' E 139°18'34414.3 070 / 141006.510.8 0.528.025.2
2015-Jan-17 18:00S 01°00' E 143°06'15312.7 220 / 31006.510.8 26.023.1
2015-Jan-17 06:00S 02°54' E 144°48'   090 / 71004.5 5.4 0.530.025.830.0

Dump ship's entire track history